Terminal Aerodrome Forecast
Issued by NWS

Home | Current Version | Previous Version | Text Only | Print | Product List | Glossary On
Versions: 1 2 3 4 5 6 7 8 9 10 11 12 13 14 15 16 17 18 19 20
000
FTUS42 KGSP 230200 AAA
TAFGMU
TAF AMD
KGMU 230239Z 2303/2324 02004KT P6SM BKN100
     FM230600 00000KT 6SM BR BKN025
     FM231300 00000KT P6SM BKN025
     FM231500 23004KT P6SM BKN035
     FM231700 21006KT P6SM BKN045 PROB30 2318/2324 4SM TSRA
      BKN025CB=

USA.gov is the U.S. government's official web portal to all federal, state and local government web resources and services.